sensor_id;sensor_type;location;lat;lon;timestamp;pressure;altitude;pressure_sealevel;temperature;humidity
75317;BME280;63913;51.492;10.368;2022-11-03T00:02:04;98820.44;;;7.81;71.75
75317;BME280;63913;51.492;10.368;2022-11-03T00:04:30;98817.13;;;7.84;71.22
75317;BME280;63913;51.492;10.368;2022-11-03T00:06:55;98814.50;;;7.82;71.28
75317;BME280;63913;51.492;10.368;2022-11-03T00:09:22;98814.38;;;7.79;71.14
75317;BME280;63913;51.492;10.368;2022-11-03T00:11:49;98812.59;;;7.77;72.03
75317;BME280;63913;51.492;10.368;2022-11-03T00:14:18;98800.69;;;7.79;71.67
75317;BME280;63913;51.492;10.368;2022-11-03T00:16:44;98808.56;;;7.83;71.56
75317;BME280;63913;51.492;10.368;2022-11-03T00:19:10;98800.16;;;7.86;71.00
75317;BME280;63913;51.492;10.368;2022-11-03T00:21:36;98805.56;;;7.93;70.71
75317;BME280;63913;51.492;10.368;2022-11-03T00:24:02;98805.47;;;7.92;70.81
75317;BME280;63913;51.492;10.368;2022-11-03T00:26:33;98804.03;;;7.98;70.44
75317;BME280;63913;51.492;10.368;2022-11-03T00:29:01;98794.81;;;8.03;70.02
75317;BME280;63913;51.492;10.368;2022-11-03T00:31:32;98791.88;;;7.93;71.13
75317;BME280;63913;51.492;10.368;2022-11-03T00:33:58;98803.03;;;7.95;71.25
75317;BME280;63913;51.492;10.368;2022-11-03T00:36:30;98796.00;;;7.89;70.23
75317;BME280;63913;51.492;10.368;2022-11-03T00:38:56;98795.94;;;7.88;71.46
75317;BME280;63913;51.492;10.368;2022-11-03T00:41:22;98799.00;;;7.79;71.10
75317;BME280;63913;51.492;10.368;2022-11-03T00:43:48;98794.16;;;7.85;71.12
75317;BME280;63913;51.492;10.368;2022-11-03T00:46:14;98794.31;;;7.90;70.54
75317;BME280;63913;51.492;10.368;2022-11-03T00:48:40;98792.56;;;7.89;71.19
75317;BME280;63913;51.492;10.368;2022-11-03T00:51:23;98789.06;;;7.87;70.67
75317;BME280;63913;51.492;10.368;2022-11-03T00:53:54;98785.00;;;7.92;70.41
75317;BME280;63913;51.492;10.368;2022-11-03T00:56:22;98781.63;;;7.93;70.97
75317;BME280;63913;51.492;10.368;2022-11-03T00:58:49;98783.25;;;7.91;71.10
75317;BME280;63913;51.492;10.368;2022-11-03T01:01:17;98786.16;;;8.00;70.85
75317;BME280;63913;51.492;10.368;2022-11-03T01:03:45;98778.19;;;7.92;70.10
75317;BME280;63913;51.492;10.368;2022-11-03T01:06:35;98771.41;;;7.93;70.64
75317;BME280;63913;51.492;10.368;2022-11-03T01:14:42;98775.88;;;7.76;70.44
75317;BME280;63913;51.492;10.368;2022-11-03T01:17:13;98774.34;;;7.81;70.59
75317;BME280;63913;51.492;10.368;2022-11-03T01:19:39;98771.56;;;7.75;70.91
75317;BME280;63913;51.492;10.368;2022-11-03T01:22:05;98767.13;;;7.71;70.46
75317;BME280;63913;51.492;10.368;2022-11-03T01:24:30;98761.13;;;7.69;70.75
75317;BME280;63913;51.492;10.368;2022-11-03T01:26:56;98761.22;;;7.72;71.37
75317;BME280;63913;51.492;10.368;2022-11-03T01:29:21;98758.16;;;7.58;71.18
75317;BME280;63913;51.492;10.368;2022-11-03T01:31:47;98755.19;;;7.70;71.32
75317;BME280;63913;51.492;10.368;2022-11-03T01:34:17;98753.53;;;7.72;71.43
75317;BME280;63913;51.492;10.368;2022-11-03T01:36:43;98756.38;;;7.80;71.04
75317;BME280;63913;51.492;10.368;2022-11-03T01:39:12;98732.66;;;7.84;70.39
75317;BME280;63913;51.492;10.368;2022-11-03T01:41:39;98725.94;;;7.87;70.80
75317;BME280;63913;51.492;10.368;2022-11-03T01:46:47;98744.91;;;7.92;70.46
75317;BME280;63913;51.492;10.368;2022-11-03T01:49:17;98729.63;;;7.94;70.76
75317;BME280;63913;51.492;10.368;2022-11-03T01:51:49;98733.69;;;7.89;71.03
75317;BME280;63913;51.492;10.368;2022-11-03T01:54:18;98724.09;;;7.83;71.41
75317;BME280;63913;51.492;10.368;2022-11-03T01:56:45;98710.22;;;7.77;71.13
75317;BME280;63913;51.492;10.368;2022-11-03T01:59:13;98717.22;;;7.82;71.77
75317;BME280;63913;51.492;10.368;2022-11-03T02:01:41;98703.84;;;7.89;70.94
75317;BME280;63913;51.492;10.368;2022-11-03T02:04:09;98710.84;;;7.95;71.01
75317;BME280;63913;51.492;10.368;2022-11-03T02:06:36;98711.09;;;8.01;70.93
75317;BME280;63913;51.492;10.368;2022-11-03T02:09:04;98701.50;;;7.95;71.00
75317;BME280;63913;51.492;10.368;2022-11-03T02:11:31;98701.53;;;7.97;71.05
75317;BME280;63913;51.492;10.368;2022-11-03T02:14:16;98691.50;;;8.01;70.75
75317;BME280;63913;51.492;10.368;2022-11-03T02:16:45;98680.66;;;7.85;70.64
75317;BME280;63913;51.492;10.368;2022-11-03T02:19:33;98680.13;;;7.95;71.00
75317;BME280;63913;51.492;10.368;2022-11-03T02:22:28;98671.91;;;8.03;70.81
75317;BME280;63913;51.492;10.368;2022-11-03T02:27:38;98667.16;;;8.14;69.83
75317;BME280;63913;51.492;10.368;2022-11-03T02:30:04;98664.78;;;8.19;69.42
75317;BME280;63913;51.492;10.368;2022-11-03T02:32:41;98654.56;;;8.20;70.09
75317;BME280;63913;51.492;10.368;2022-11-03T02:35:32;98648.69;;;8.23;69.78
75317;BME280;63913;51.492;10.368;2022-11-03T02:38:01;98651.31;;;8.24;69.63
75317;BME280;63913;51.492;10.368;2022-11-03T02:40:35;98635.06;;;8.24;70.04
75317;BME280;63913;51.492;10.368;2022-11-03T02:43:03;98635.94;;;8.24;70.17
75317;BME280;63913;51.492;10.368;2022-11-03T02:45:30;98632.44;;;8.22;69.31
75317;BME280;63913;51.492;10.368;2022-11-03T02:47:58;98620.44;;;8.21;69.42
75317;BME280;63913;51.492;10.368;2022-11-03T02:50:26;98622.13;;;8.21;69.80
75317;BME280;63913;51.492;10.368;2022-11-03T02:52:52;98628.94;;;8.20;69.50
75317;BME280;63913;51.492;10.368;2022-11-03T02:57:59;98620.63;;;8.26;69.52
75317;BME280;63913;51.492;10.368;2022-11-03T03:00:30;98615.44;;;8.24;68.67
75317;BME280;63913;51.492;10.368;2022-11-03T03:03:10;98617.25;;;8.27;69.14
75317;BME280;63913;51.492;10.368;2022-11-03T03:05:40;98611.19;;;8.25;69.18
75317;BME280;63913;51.492;10.368;2022-11-03T03:08:09;98609.50;;;8.25;69.42
75317;BME280;63913;51.492;10.368;2022-11-03T03:10:38;98589.91;;;8.27;69.52
75317;BME280;63913;51.492;10.368;2022-11-03T03:13:05;98612.72;;;8.20;69.67
75317;BME280;63913;51.492;10.368;2022-11-03T03:15:48;98603.41;;;8.22;69.81
75317;BME280;63913;51.492;10.368;2022-11-03T03:18:25;98605.00;;;8.18;69.28
75317;BME280;63913;51.492;10.368;2022-11-03T03:21:00;98604.13;;;8.18;69.22
75317;BME280;63913;51.492;10.368;2022-11-03T03:23:35;98598.19;;;8.19;69.94
75317;BME280;63913;51.492;10.368;2022-11-03T03:26:09;98604.16;;;8.19;69.75
75317;BME280;63913;51.492;10.368;2022-11-03T03:28:42;98595.50;;;8.16;70.17
75317;BME280;63913;51.492;10.368;2022-11-03T03:31:09;98590.44;;;8.17;69.99
75317;BME280;63913;51.492;10.368;2022-11-03T03:33:37;98585.34;;;8.17;69.99
75317;BME280;63913;51.492;10.368;2022-11-03T03:36:07;98586.97;;;8.15;70.24
75317;BME280;63913;51.492;10.368;2022-11-03T03:38:38;98592.97;;;8.16;70.25
75317;BME280;63913;51.492;10.368;2022-11-03T03:41:04;98587.09;;;8.20;70.80
75317;BME280;63913;51.492;10.368;2022-11-03T03:43:34;98586.22;;;8.19;70.49
75317;BME280;63913;51.492;10.368;2022-11-03T03:46:09;98594.84;;;8.21;71.12
75317;BME280;63913;51.492;10.368;2022-11-03T03:48:44;98587.34;;;8.27;71.29
75317;BME280;63913;51.492;10.368;2022-11-03T03:51:11;98584.97;;;8.32;71.15
75317;BME280;63913;51.492;10.368;2022-11-03T03:53:37;98573.97;;;8.34;70.88
75317;BME280;63913;51.492;10.368;2022-11-03T03:56:05;98569.66;;;8.33;70.45
75317;BME280;63913;51.492;10.368;2022-11-03T03:58:36;98569.72;;;8.35;71.15
75317;BME280;63913;51.492;10.368;2022-11-03T04:01:02;98572.28;;;8.35;70.63
75317;BME280;63913;51.492;10.368;2022-11-03T04:03:27;98577.44;;;8.36;71.14
75317;BME280;63913;51.492;10.368;2022-11-03T04:05:53;98583.34;;;8.34;70.99
75317;BME280;63913;51.492;10.368;2022-11-03T04:08:18;98575.69;;;8.35;70.80
75317;BME280;63913;51.492;10.368;2022-11-03T04:10:50;98562.88;;;8.35;70.57
75317;BME280;63913;51.492;10.368;2022-11-03T04:13:34;98556.06;;;8.36;70.72
75317;BME280;63913;51.492;10.368;2022-11-03T04:16:24;98565.44;;;8.35;70.50
75317;BME280;63913;51.492;10.368;2022-11-03T04:19:10;98561.13;;;8.33;71.24
75317;BME280;63913;51.492;10.368;2022-11-03T04:21:57;98550.91;;;8.34;71.41
75317;BME280;63913;51.492;10.368;2022-11-03T04:24:45;98553.38;;;8.31;71.43
75317;BME280;63913;51.492;10.368;2022-11-03T04:27:30;98546.47;;;8.30;71.05
75317;BME280;63913;51.492;10.368;2022-11-03T04:30:00;98543.91;;;8.30;71.48
75317;BME280;63913;51.492;10.368;2022-11-03T04:32:33;98542.16;;;8.29;71.08
75317;BME280;63913;51.492;10.368;2022-11-03T04:35:09;98538.06;;;8.33;71.21
75317;BME280;63913;51.492;10.368;2022-11-03T04:37:38;98535.56;;;8.34;71.41
75317;BME280;63913;51.492;10.368;2022-11-03T04:40:13;98528.69;;;8.33;71.45
75317;BME280;63913;51.492;10.368;2022-11-03T04:42:43;98533.94;;;8.38;71.95
75317;BME280;63913;51.492;10.368;2022-11-03T04:45:28;98531.47;;;8.41;71.23
75317;BME280;63913;51.492;10.368;2022-11-03T04:48:12;98516.25;;;8.46;71.64
75317;BME280;63913;51.492;10.368;2022-11-03T04:50:38;98512.84;;;8.47;71.11
75317;BME280;63913;51.492;10.368;2022-11-03T04:53:12;98509.47;;;8.48;71.45
75317;BME280;63913;51.492;10.368;2022-11-03T04:55:39;98512.97;;;8.50;71.88
75317;BME280;63913;51.492;10.368;2022-11-03T04:58:29;98497.72;;;8.54;71.67
75317;BME280;63913;51.492;10.368;2022-11-03T05:00:58;98491.78;;;8.55;72.09
75317;BME280;63913;51.492;10.368;2022-11-03T05:03:31;98497.81;;;8.57;71.69
75317;BME280;63913;51.492;10.368;2022-11-03T05:06:19;98483.38;;;8.59;72.36
75317;BME280;63913;51.492;10.368;2022-11-03T05:08:51;98491.06;;;8.61;72.36
75317;BME280;63913;51.492;10.368;2022-11-03T05:13:52;98485.22;;;8.65;71.78
75317;BME280;63913;51.492;10.368;2022-11-03T05:16:17;98481.78;;;8.64;72.01
75317;BME280;63913;51.492;10.368;2022-11-03T05:18:43;98482.72;;;8.66;72.33
75317;BME280;63913;51.492;10.368;2022-11-03T05:21:15;98473.34;;;8.68;72.58
75317;BME280;63913;51.492;10.368;2022-11-03T05:23:52;98476.94;;;8.73;72.01
75317;BME280;63913;51.492;10.368;2022-11-03T05:26:23;98473.56;;;8.76;72.48
75317;BME280;63913;51.492;10.368;2022-11-03T05:28:59;98471.97;;;8.79;72.40
75317;BME280;63913;51.492;10.368;2022-11-03T05:31:29;98473.78;;;8.82;72.35
75317;BME280;63913;51.492;10.368;2022-11-03T05:33:57;98477.16;;;8.81;72.22
75317;BME280;63913;51.492;10.368;2022-11-03T05:36:28;98465.25;;;8.83;72.33
75317;BME280;63913;51.492;10.368;2022-11-03T05:38:57;98465.22;;;8.82;72.65
75317;BME280;63913;51.492;10.368;2022-11-03T05:41:29;98473.84;;;8.85;72.11
75317;BME280;63913;51.492;10.368;2022-11-03T05:46:38;98460.13;;;8.83;72.61
75317;BME280;63913;51.492;10.368;2022-11-03T05:49:13;98458.41;;;8.82;72.96
75317;BME280;63913;51.492;10.368;2022-11-03T05:51:40;98463.47;;;8.80;72.87
75317;BME280;63913;51.492;10.368;2022-11-03T05:54:18;98464.19;;;8.75;72.75
75317;BME280;63913;51.492;10.368;2022-11-03T05:56:44;98458.19;;;8.74;72.79
75317;BME280;63913;51.492;10.368;2022-11-03T05:59:18;98463.91;;;8.66;nan
75317;BME280;63913;51.492;10.368;2022-11-03T06:01:51;98470.72;;;8.65;72.72
75317;BME280;63913;51.492;10.368;2022-11-03T06:04:34;98463.69;;;8.58;72.39
75317;BME280;63913;51.492;10.368;2022-11-03T06:07:22;98463.53;;;8.54;72.50
75317;BME280;63913;51.492;10.368;2022-11-03T06:09:54;98460.78;;;8.48;72.30
75317;BME280;63913;51.492;10.368;2022-11-03T06:12:34;98464.00;;;8.40;72.56
75317;BME280;63913;51.492;10.368;2022-11-03T06:15:43;98467.25;;;8.35;72.42
75317;BME280;63913;51.492;10.368;2022-11-03T06:18:15;98460.41;;;8.34;73.36
75317;BME280;63913;51.492;10.368;2022-11-03T06:20:52;98468.69;;;8.27;72.08
75317;BME280;63913;51.492;10.368;2022-11-03T06:23:19;98475.28;;;8.20;73.23
75317;BME280;63913;51.492;10.368;2022-11-03T06:25:55;98464.09;;;8.17;73.50
75317;BME280;63913;51.492;10.368;2022-11-03T06:28:34;98466.25;;;8.04;73.12
75317;BME280;63913;51.492;10.368;2022-11-03T06:31:01;98463.16;;;7.88;74.42
75317;BME280;63913;51.492;10.368;2022-11-03T06:33:32;98464.28;;;7.96;75.28
75317;BME280;63913;51.492;10.368;2022-11-03T06:36:02;98471.25;;;8.00;73.70
75317;BME280;63913;51.492;10.368;2022-11-03T06:38:33;98461.13;;;8.04;74.84
75317;BME280;63913;51.492;10.368;2022-11-03T06:40:59;98458.69;;;8.08;74.06
75317;BME280;63913;51.492;10.368;2022-11-03T06:43:26;98464.69;;;8.08;73.09
75317;BME280;63913;51.492;10.368;2022-11-03T06:46:28;98460.94;;;7.98;72.95
75317;BME280;63913;51.492;10.368;2022-11-03T06:48:59;98457.41;;;7.95;73.70
75317;BME280;63913;51.492;10.368;2022-11-03T06:51:34;98457.38;;;7.93;73.72
75317;BME280;63913;51.492;10.368;2022-11-03T06:54:08;98461.59;;;7.91;73.76
75317;BME280;63913;51.492;10.368;2022-11-03T06:56:38;98456.34;;;7.88;73.49
75317;BME280;63913;51.492;10.368;2022-11-03T06:59:08;98459.91;;;7.92;74.22
75317;BME280;63913;51.492;10.368;2022-11-03T07:01:34;98450.47;;;7.91;75.36
75317;BME280;63913;51.492;10.368;2022-11-03T07:04:02;98457.53;;;7.98;75.46
75317;BME280;63913;51.492;10.368;2022-11-03T07:06:40;98457.69;;;8.04;74.96
75317;BME280;63913;51.492;10.368;2022-11-03T07:09:13;98450.13;;;8.07;75.34
75317;BME280;63913;51.492;10.368;2022-11-03T07:11:57;98450.31;;;8.13;74.84
75317;BME280;63913;51.492;10.368;2022-11-03T07:14:27;98447.75;;;8.13;74.59
75317;BME280;63913;51.492;10.368;2022-11-03T07:16:56;98452.09;;;8.16;74.56
75317;BME280;63913;51.492;10.368;2022-11-03T07:19:26;98452.09;;;8.16;74.88
75317;BME280;63913;51.492;10.368;2022-11-03T07:22:26;98450.47;;;8.18;74.34
75317;BME280;63913;51.492;10.368;2022-11-03T07:24:59;98444.44;;;8.16;74.08
75317;BME280;63913;51.492;10.368;2022-11-03T07:27:29;98445.25;;;8.15;73.99
75317;BME280;63913;51.492;10.368;2022-11-03T07:30:09;98438.31;;;8.12;74.90
75317;BME280;63913;51.492;10.368;2022-11-03T07:32:38;98443.59;;;8.17;74.66
75317;BME280;63913;51.492;10.368;2022-11-03T07:37:55;98429.19;;;8.20;74.73
75317;BME280;63913;51.492;10.368;2022-11-03T07:40:31;98432.63;;;8.21;74.44
75317;BME280;63913;51.492;10.368;2022-11-03T07:43:00;98425.84;;;8.23;73.90
75317;BME280;63913;51.492;10.368;2022-11-03T07:45:36;98425.84;;;8.23;73.51
75317;BME280;63913;51.492;10.368;2022-11-03T07:50:59;98414.84;;;8.25;73.84
75317;BME280;63913;51.492;10.368;2022-11-03T07:53:35;98408.03;;;8.26;73.76
75317;BME280;63913;51.492;10.368;2022-11-03T07:56:01;98403.81;;;8.28;74.00
75317;BME280;63913;51.492;10.368;2022-11-03T07:58:38;98406.41;;;8.29;74.37
75317;BME280;63913;51.492;10.368;2022-11-03T08:01:31;98402.25;;;8.31;73.61
75317;BME280;63913;51.492;10.368;2022-11-03T08:04:06;98395.44;;;8.32;73.73
75317;BME280;63913;51.492;10.368;2022-11-03T08:06:32;98399.78;;;8.34;73.85
75317;BME280;63913;51.492;10.368;2022-11-03T08:08:58;98392.91;;;8.33;73.54
75317;BME280;63913;51.492;10.368;2022-11-03T08:11:24;98391.22;;;8.34;74.35
75317;BME280;63913;51.492;10.368;2022-11-03T08:13:52;98386.97;;;8.34;74.52
75317;BME280;63913;51.492;10.368;2022-11-03T08:16:18;98378.53;;;8.38;73.92
75317;BME280;63913;51.492;10.368;2022-11-03T08:18:46;98369.06;;;8.36;74.11
75317;BME280;63913;51.492;10.368;2022-11-03T08:21:12;98373.53;;;8.41;74.49
75317;BME280;63913;51.492;10.368;2022-11-03T08:23:38;98362.56;;;8.47;75.07
75317;BME280;63913;51.492;10.368;2022-11-03T08:26:04;98352.47;;;8.53;74.92
75317;BME280;63913;51.492;10.368;2022-11-03T08:28:29;98344.13;;;8.59;74.75
75317;BME280;63913;51.492;10.368;2022-11-03T08:31:04;98352.88;;;8.67;74.87
75317;BME280;63913;51.492;10.368;2022-11-03T08:33:35;98339.34;;;8.72;75.01
75317;BME280;63913;51.492;10.368;2022-11-03T08:36:02;98346.41;;;8.81;74.56
75317;BME280;63913;51.492;10.368;2022-11-03T08:38:27;98340.53;;;8.85;74.22
75317;BME280;63913;51.492;10.368;2022-11-03T08:40:54;98344.09;;;8.90;73.81
75317;BME280;63913;51.492;10.368;2022-11-03T08:43:20;98339.03;;;8.93;73.74
75317;BME280;63913;51.492;10.368;2022-11-03T08:45:51;98343.47;;;8.99;73.23
75317;BME280;63913;51.492;10.368;2022-11-03T08:48:22;98334.19;;;9.04;73.99
75317;BME280;63913;51.492;10.368;2022-11-03T08:50:48;98339.47;;;9.10;73.57
75317;BME280;63913;51.492;10.368;2022-11-03T08:53:34;98321.66;;;9.14;73.59
75317;BME280;63913;51.492;10.368;2022-11-03T08:55:59;98326.88;;;9.19;73.16
75317;BME280;63913;51.492;10.368;2022-11-03T08:58:33;98318.44;;;9.23;73.04
75317;BME280;63913;51.492;10.368;2022-11-03T09:01:02;98307.22;;;9.19;73.54
75317;BME280;63913;51.492;10.368;2022-11-03T09:03:27;98303.06;;;9.23;72.96
75317;BME280;63913;51.492;10.368;2022-11-03T09:05:53;98303.91;;;9.24;73.28
75317;BME280;63913;51.492;10.368;2022-11-03T09:08:18;98303.59;;;9.11;72.89
75317;BME280;63913;51.492;10.368;2022-11-03T09:10:43;98298.66;;;9.19;73.20
75317;BME280;63913;51.492;10.368;2022-11-03T09:13:17;98284.97;;;9.18;72.99
75317;BME280;63913;51.492;10.368;2022-11-03T09:15:43;98281.66;;;9.23;73.23
75317;BME280;63913;51.492;10.368;2022-11-03T09:18:08;98282.53;;;9.25;73.07
75317;BME280;63913;51.492;10.368;2022-11-03T09:20:36;98291.09;;;9.25;73.16
75317;BME280;63913;51.492;10.368;2022-11-03T09:23:05;98274.00;;;9.26;73.25
75317;BME280;63913;51.492;10.368;2022-11-03T09:25:30;98275.88;;;9.31;71.96
75317;BME280;63913;51.492;10.368;2022-11-03T09:27:55;98268.19;;;9.33;72.59
75317;BME280;63913;51.492;10.368;2022-11-03T09:30:21;98262.28;;;9.35;72.48
75317;BME280;63913;51.492;10.368;2022-11-03T09:32:46;98266.75;;;9.44;72.16
75317;BME280;63913;51.492;10.368;2022-11-03T09:35:12;98257.50;;;9.50;73.13
75317;BME280;63913;51.492;10.368;2022-11-03T09:37:51;98246.56;;;9.59;72.55
75317;BME280;63913;51.492;10.368;2022-11-03T09:40:25;98245.91;;;9.68;72.15
75317;BME280;63913;51.492;10.368;2022-11-03T09:42:51;98245.19;;;9.75;72.51
75317;BME280;63913;51.492;10.368;2022-11-03T09:45:16;98236.34;;;10.01;72.06
75317;BME280;63913;51.492;10.368;2022-11-03T09:47:44;98233.16;;;10.14;72.00
75317;BME280;63913;51.492;10.368;2022-11-03T09:50:16;98218.84;;;10.25;70.86
75317;BME280;63913;51.492;10.368;2022-11-03T09:52:43;98212.28;;;10.41;70.45
75317;BME280;63913;51.492;10.368;2022-11-03T09:55:16;98205.66;;;10.52;69.83
75317;BME280;63913;51.492;10.368;2022-11-03T09:57:44;98208.34;;;10.60;69.99
75317;BME280;63913;51.492;10.368;2022-11-03T10:00:22;98211.97;;;10.71;69.20
75317;BME280;63913;51.492;10.368;2022-11-03T10:02:56;98202.72;;;10.82;68.41
75317;BME280;63913;51.492;10.368;2022-11-03T10:05:34;98191.66;;;10.88;68.88
75317;BME280;63913;51.492;10.368;2022-11-03T10:08:02;98209.72;;;10.91;68.20
75317;BME280;63913;51.492;10.368;2022-11-03T10:10:33;98194.34;;;10.95;68.27
75317;BME280;63913;51.492;10.368;2022-11-03T10:13:00;98203.88;;;10.99;67.39
75317;BME280;63913;51.492;10.368;2022-11-03T10:15:29;98196.22;;;11.05;67.77
75317;BME280;63913;51.492;10.368;2022-11-03T10:17:54;98199.75;;;11.12;67.54
75317;BME280;63913;51.492;10.368;2022-11-03T10:20:23;98181.72;;;11.09;67.68
75317;BME280;63913;51.492;10.368;2022-11-03T10:22:54;98195.38;;;11.05;67.40
75317;BME280;63913;51.492;10.368;2022-11-03T10:28:20;98186.03;;;11.12;66.77
75317;BME280;63913;51.492;10.368;2022-11-03T10:33:50;98178.41;;;11.19;65.68
75317;BME280;63913;51.492;10.368;2022-11-03T10:36:28;98168.09;;;11.16;66.57
75317;BME280;63913;51.492;10.368;2022-11-03T10:38:57;98170.75;;;11.22;67.35
75317;BME280;63913;51.492;10.368;2022-11-03T10:41:29;98151.91;;;11.23;66.94
75317;BME280;63913;51.492;10.368;2022-11-03T10:46:36;98135.75;;;11.33;66.84
75317;BME280;63913;51.492;10.368;2022-11-03T10:49:15;98137.59;;;11.42;66.47
75317;BME280;63913;51.492;10.368;2022-11-03T10:51:43;98135.06;;;11.46;65.98
75317;BME280;63913;51.492;10.368;2022-11-03T10:54:13;98146.22;;;11.47;65.97
75317;BME280;63913;51.492;10.368;2022-11-03T10:56:41;98130.84;;;11.53;64.98
75317;BME280;63913;51.492;10.368;2022-11-03T10:59:16;98130.88;;;11.55;65.23
75317;BME280;63913;51.492;10.368;2022-11-03T11:01:43;98129.13;;;11.54;65.74
75317;BME280;63913;51.492;10.368;2022-11-03T11:04:12;98118.91;;;11.60;65.69
75317;BME280;63913;51.492;10.368;2022-11-03T11:06:42;98121.53;;;11.64;66.13
75317;BME280;63913;51.492;10.368;2022-11-03T11:09:10;98118.97;;;11.64;65.03
75317;BME280;63913;51.492;10.368;2022-11-03T11:15:00;98116.38;;;11.63;65.47
75317;BME280;63913;51.492;10.368;2022-11-03T11:17:40;98112.97;;;11.65;64.90
75317;BME280;63913;51.492;10.368;2022-11-03T11:22:48;98095.78;;;11.63;65.45
75317;BME280;63913;51.492;10.368;2022-11-03T11:25:20;98103.53;;;11.66;65.81
75317;BME280;63913;51.492;10.368;2022-11-03T11:27:46;98088.19;;;11.73;64.87
75317;BME280;63913;51.492;10.368;2022-11-03T11:35:17;98067.47;;;11.64;64.87
75317;BME280;63913;51.492;10.368;2022-11-03T11:41:07;98054.63;;;11.66;65.28
75317;BME280;63913;51.492;10.368;2022-11-03T11:43:36;98034.84;;;11.65;65.65
75317;BME280;63913;51.492;10.368;2022-11-03T11:46:31;98034.88;;;11.68;65.46
75317;BME280;63913;51.492;10.368;2022-11-03T11:49:02;98028.91;;;11.72;64.63
75317;BME280;63913;51.492;10.368;2022-11-03T11:51:39;98018.59;;;11.70;65.84
75317;BME280;63913;51.492;10.368;2022-11-03T11:54:07;98012.59;;;11.71;65.94
75317;BME280;63913;51.492;10.368;2022-11-03T11:56:33;98010.88;;;11.70;66.43
75317;BME280;63913;51.492;10.368;2022-11-03T11:59:21;98014.28;;;11.69;65.28
75317;BME280;63913;51.492;10.368;2022-11-03T12:02:28;97997.16;;;11.71;65.75
75317;BME280;63913;51.492;10.368;2022-11-03T12:05:16;97991.09;;;11.68;65.71
75317;BME280;63913;51.492;10.368;2022-11-03T12:19:56;97949.19;;;11.81;65.25
75317;BME280;63913;51.492;10.368;2022-11-03T12:22:40;97944.06;;;11.85;65.98
75317;BME280;63913;51.492;10.368;2022-11-03T12:25:44;97932.97;;;11.90;65.84
75317;BME280;63913;51.492;10.368;2022-11-03T12:28:38;97929.53;;;11.92;65.67
75317;BME280;63913;51.492;10.368;2022-11-03T12:31:12;97924.38;;;11.89;65.90
75317;BME280;63913;51.492;10.368;2022-11-03T12:33:55;97923.50;;;11.89;65.85
75317;BME280;63913;51.492;10.368;2022-11-03T12:36:39;97916.63;;;11.88;65.30
75317;BME280;63913;51.492;10.368;2022-11-03T12:39:33;97905.47;;;11.89;65.22
75317;BME280;63913;51.492;10.368;2022-11-03T12:42:07;97905.44;;;11.87;64.99
75317;BME280;63913;51.492;10.368;2022-11-03T12:45:01;97897.69;;;11.85;65.28
75317;BME280;63913;51.492;10.368;2022-11-03T12:47:35;97897.69;;;11.85;65.13
75317;BME280;63913;51.492;10.368;2022-11-03T12:50:08;97898.56;;;11.86;65.28
75317;BME280;63913;51.492;10.368;2022-11-03T12:52:52;97894.31;;;11.90;64.92
75317;BME280;63913;51.492;10.368;2022-11-03T12:55:26;97888.31;;;11.91;65.62
75317;BME280;63913;51.492;10.368;2022-11-03T12:58:01;97879.72;;;11.93;65.71
75317;BME280;63913;51.492;10.368;2022-11-03T13:00:35;97872.88;;;11.97;65.32
75317;BME280;63913;51.492;10.368;2022-11-03T13:03:09;97863.47;;;11.99;65.17
75317;BME280;63913;51.492;10.368;2022-11-03T13:05:51;97862.59;;;11.97;64.63
75317;BME280;63913;51.492;10.368;2022-11-03T13:08:35;97860.03;;;12.00;65.02
75317;BME280;63913;51.492;10.368;2022-11-03T13:11:19;97848.00;;;11.97;65.91
75317;BME280;63913;51.492;10.368;2022-11-03T13:14:13;97838.56;;;11.99;65.03
75317;BME280;63913;51.492;10.368;2022-11-03T13:16:46;97833.41;;;11.99;65.46
75317;BME280;63913;51.492;10.368;2022-11-03T13:19:20;97817.06;;;11.97;65.00
75317;BME280;63913;51.492;10.368;2022-11-03T13:21:53;97807.63;;;11.96;66.24
75317;BME280;63913;51.492;10.368;2022-11-03T13:24:37;97810.22;;;11.98;65.32
75317;BME280;63913;51.492;10.368;2022-11-03T13:27:21;97801.63;;;11.97;66.43
75317;BME280;63913;51.492;10.368;2022-11-03T13:29:46;97799.88;;;11.96;66.29
75317;BME280;63913;51.492;10.368;2022-11-03T13:32:12;97806.72;;;11.93;67.15
75317;BME280;63913;51.492;10.368;2022-11-03T13:34:40;97805.88;;;11.92;67.01
75317;BME280;63913;51.492;10.368;2022-11-03T13:37:11;97807.59;;;11.90;66.26
75317;BME280;63913;51.492;10.368;2022-11-03T13:39:39;97795.56;;;11.89;66.54
75317;BME280;63913;51.492;10.368;2022-11-03T13:42:10;97786.09;;;11.88;66.28
75317;BME280;63913;51.492;10.368;2022-11-03T13:44:44;97790.38;;;11.86;66.89
75317;BME280;63913;51.492;10.368;2022-11-03T13:47:16;97795.53;;;11.84;67.62
75317;BME280;63913;51.492;10.368;2022-11-03T13:49:41;97797.25;;;11.87;66.28
75317;BME280;63913;51.492;10.368;2022-11-03T13:52:13;97790.41;;;11.88;66.22
75317;BME280;63913;51.492;10.368;2022-11-03T13:54:38;97777.50;;;11.86;67.09
75317;BME280;63913;51.492;10.368;2022-11-03T13:57:03;97780.94;;;11.87;66.58
75317;BME280;63913;51.492;10.368;2022-11-03T13:59:28;97782.63;;;11.84;66.95
75317;BME280;63913;51.492;10.368;2022-11-03T14:01:54;97784.38;;;11.87;66.66
75317;BME280;63913;51.492;10.368;2022-11-03T14:04:20;97779.22;;;11.85;66.54
75317;BME280;63913;51.492;10.368;2022-11-03T14:06:45;97777.50;;;11.88;66.95
75317;BME280;63913;51.492;10.368;2022-11-03T14:09:10;97770.69;;;11.94;67.21
75317;BME280;63913;51.492;10.368;2022-11-03T14:11:36;97766.38;;;11.93;66.68
75317;BME280;63913;51.492;10.368;2022-11-03T14:14:23;97752.63;;;11.90;67.09
75317;BME280;63913;51.492;10.368;2022-11-03T14:16:48;97739.75;;;11.88;67.34
75317;BME280;63913;51.492;10.368;2022-11-03T14:19:19;97722.53;;;11.84;67.19
75317;BME280;63913;51.492;10.368;2022-11-03T14:21:48;97723.38;;;11.80;67.41
75317;BME280;63913;51.492;10.368;2022-11-03T14:24:17;97721.63;;;11.76;67.60